sensor_id;sensor_type;location;lat;lon;timestamp;P1;durP1;ratioP1;P2;durP2;ratioP2
11620;SDS011;5866;49.094;11.900;2022-09-03T00:02:01;42.40;;;40.08;;
11620;SDS011;5866;49.094;11.900;2022-09-03T00:04:38;41.08;;;38.83;;
11620;SDS011;5866;49.094;11.900;2022-09-03T00:07:15;30.00;;;28.30;;
11620;SDS011;5866;49.094;11.900;2022-09-03T00:09:47;32.17;;;30.48;;
11620;SDS011;5866;49.094;11.900;2022-09-03T00:12:21;33.03;;;31.23;;
11620;SDS011;5866;49.094;11.900;2022-09-03T00:14:54;37.58;;;35.38;;
11620;SDS011;5866;49.094;11.900;2022-09-03T00:17:28;37.33;;;35.35;;
11620;SDS011;5866;49.094;11.900;2022-09-03T00:19:59;38.50;;;36.53;;
11620;SDS011;5866;49.094;11.900;2022-09-03T00:22:33;40.88;;;38.63;;
11620;SDS011;5866;49.094;11.900;2022-09-03T00:25:05;37.55;;;35.58;;
11620;SDS011;5866;49.094;11.900;2022-09-03T00:27:38;37.17;;;35.22;;
11620;SDS011;5866;49.094;11.900;2022-09-03T00:30:08;38.33;;;36.22;;
11620;SDS011;5866;49.094;11.900;2022-09-03T00:32:43;35.47;;;33.47;;
11620;SDS011;5866;49.094;11.900;2022-09-03T00:35:14;41.67;;;39.47;;
11620;SDS011;5866;49.094;11.900;2022-09-03T00:37:47;37.85;;;35.75;;
11620;SDS011;5866;49.094;11.900;2022-09-03T00:40:17;37.30;;;35.30;;
11620;SDS011;5866;49.094;11.900;2022-09-03T00:42:59;44.42;;;41.88;;
11620;SDS011;5866;49.094;11.900;2022-09-03T00:45:37;38.45;;;36.42;;
11620;SDS011;5866;49.094;11.900;2022-09-03T00:48:12;68.25;;;64.65;;
11620;SDS011;5866;49.094;11.900;2022-09-03T00:51:01;85.43;;;80.90;;
11620;SDS011;5866;49.094;11.900;2022-09-03T00:53:39;54.35;;;51.25;;
11620;SDS011;5866;49.094;11.900;2022-09-03T00:56:18;50.97;;;48.17;;
11620;SDS011;5866;49.094;11.900;2022-09-03T00:58:56;42.63;;;40.33;;
11620;SDS011;5866;49.094;11.900;2022-09-03T01:01:35;42.47;;;40.10;;
11620;SDS011;5866;49.094;11.900;2022-09-03T01:04:19;48.03;;;45.22;;
11620;SDS011;5866;49.094;11.900;2022-09-03T01:06:56;38.45;;;36.42;;
11620;SDS011;5866;49.094;11.900;2022-09-03T01:09:36;43.10;;;40.70;;
11620;SDS011;5866;49.094;11.900;2022-09-03T01:12:16;51.97;;;49.15;;
11620;SDS011;5866;49.094;11.900;2022-09-03T01:14:53;58.75;;;55.60;;
11620;SDS011;5866;49.094;11.900;2022-09-03T01:17:33;46.53;;;44.10;;
11620;SDS011;5866;49.094;11.900;2022-09-03T01:20:13;43.17;;;40.90;;
11620;SDS011;5866;49.094;11.900;2022-09-03T01:25:58;49.38;;;46.78;;
11620;SDS011;5866;49.094;11.900;2022-09-03T01:28:41;44.73;;;42.33;;
11620;SDS011;5866;49.094;11.900;2022-09-03T01:31:23;37.45;;;35.35;;
11620;SDS011;5866;49.094;11.900;2022-09-03T01:34:04;82.20;;;77.93;;
11620;SDS011;5866;49.094;11.900;2022-09-03T01:36:41;88.45;;;83.88;;
11620;SDS011;5866;49.094;11.900;2022-09-03T01:39:16;66.30;;;62.60;;
11620;SDS011;5866;49.094;11.900;2022-09-03T01:41:55;54.37;;;51.37;;
11620;SDS011;5866;49.094;11.900;2022-09-03T01:44:54;49.33;;;46.67;;
11620;SDS011;5866;49.094;11.900;2022-09-03T01:47:41;58.30;;;55.23;;
11620;SDS011;5866;49.094;11.900;2022-09-03T01:50:20;49.58;;;46.92;;
11620;SDS011;5866;49.094;11.900;2022-09-03T01:53:02;49.53;;;46.80;;
11620;SDS011;5866;49.094;11.900;2022-09-03T01:55:40;67.97;;;64.35;;
11620;SDS011;5866;49.094;11.900;2022-09-03T01:58:23;66.20;;;62.70;;
11620;SDS011;5866;49.094;11.900;2022-09-03T02:01:00;83.60;;;79.30;;
11620;SDS011;5866;49.094;11.900;2022-09-03T02:03:32;52.05;;;49.10;;
11620;SDS011;5866;49.094;11.900;2022-09-03T02:06:06;39.17;;;37.10;;
11620;SDS011;5866;49.094;11.900;2022-09-03T02:08:34;40.00;;;37.78;;
11620;SDS011;5866;49.094;11.900;2022-09-03T02:11:02;41.77;;;39.57;;
11620;SDS011;5866;49.094;11.900;2022-09-03T02:13:35;39.58;;;37.53;;
11620;SDS011;5866;49.094;11.900;2022-09-03T02:16:09;40.47;;;38.17;;
11620;SDS011;5866;49.094;11.900;2022-09-03T02:18:40;40.90;;;38.50;;
11620;SDS011;5866;49.094;11.900;2022-09-03T02:21:12;29.20;;;27.33;;
11620;SDS011;5866;49.094;11.900;2022-09-03T02:23:42;22.67;;;21.37;;
11620;SDS011;5866;49.094;11.900;2022-09-03T02:26:10;29.05;;;27.13;;
11620;SDS011;5866;49.094;11.900;2022-09-03T02:28:42;53.45;;;50.60;;
11620;SDS011;5866;49.094;11.900;2022-09-03T02:31:12;49.73;;;47.03;;
11620;SDS011;5866;49.094;11.900;2022-09-03T02:33:41;70.07;;;66.47;;
11620;SDS011;5866;49.094;11.900;2022-09-03T02:36:11;52.67;;;49.67;;
11620;SDS011;5866;49.094;11.900;2022-09-03T02:38:40;70.27;;;66.63;;
11620;SDS011;5866;49.094;11.900;2022-09-03T02:41:09;43.17;;;40.85;;
11620;SDS011;5866;49.094;11.900;2022-09-03T02:43:41;43.43;;;41.13;;
11620;SDS011;5866;49.094;11.900;2022-09-03T02:46:15;66.53;;;62.97;;
11620;SDS011;5866;49.094;11.900;2022-09-03T02:48:47;70.77;;;67.00;;
11620;SDS011;5866;49.094;11.900;2022-09-03T02:51:14;41.70;;;39.37;;
11620;SDS011;5866;49.094;11.900;2022-09-03T02:53:42;40.30;;;38.05;;
11620;SDS011;5866;49.094;11.900;2022-09-03T02:56:10;43.90;;;41.17;;
11620;SDS011;5866;49.094;11.900;2022-09-03T02:58:38;40.10;;;37.87;;
11620;SDS011;5866;49.094;11.900;2022-09-03T03:01:06;30.63;;;28.93;;
11620;SDS011;5866;49.094;11.900;2022-09-03T03:03:34;32.15;;;30.38;;
11620;SDS011;5866;49.094;11.900;2022-09-03T03:06:03;49.47;;;46.88;;
11620;SDS011;5866;49.094;11.900;2022-09-03T03:08:32;28.13;;;26.53;;
11620;SDS011;5866;49.094;11.900;2022-09-03T03:11:00;31.50;;;29.45;;
11620;SDS011;5866;49.094;11.900;2022-09-03T03:13:28;35.67;;;33.85;;
11620;SDS011;5866;49.094;11.900;2022-09-03T03:15:57;32.97;;;30.80;;
11620;SDS011;5866;49.094;11.900;2022-09-03T03:18:26;34.57;;;32.57;;
11620;SDS011;5866;49.094;11.900;2022-09-03T03:20:55;34.17;;;32.38;;
11620;SDS011;5866;49.094;11.900;2022-09-03T03:23:23;38.65;;;36.33;;
11620;SDS011;5866;49.094;11.900;2022-09-03T03:25:50;37.95;;;35.85;;
11620;SDS011;5866;49.094;11.900;2022-09-03T03:28:18;42.20;;;39.78;;
11620;SDS011;5866;49.094;11.900;2022-09-03T03:30:45;48.15;;;45.47;;
11620;SDS011;5866;49.094;11.900;2022-09-03T03:33:14;53.25;;;50.35;;
11620;SDS011;5866;49.094;11.900;2022-09-03T03:35:41;43.88;;;41.58;;
11620;SDS011;5866;49.094;11.900;2022-09-03T03:38:10;48.67;;;46.03;;
11620;SDS011;5866;49.094;11.900;2022-09-03T03:40:38;51.63;;;48.88;;
11620;SDS011;5866;49.094;11.900;2022-09-03T03:43:05;55.45;;;52.33;;
11620;SDS011;5866;49.094;11.900;2022-09-03T03:45:33;59.47;;;56.38;;
11620;SDS011;5866;49.094;11.900;2022-09-03T03:48:01;52.88;;;50.03;;
11620;SDS011;5866;49.094;11.900;2022-09-03T03:50:28;56.10;;;53.05;;
11620;SDS011;5866;49.094;11.900;2022-09-03T03:52:57;56.10;;;53.15;;
11620;SDS011;5866;49.094;11.900;2022-09-03T03:55:28;54.47;;;51.65;;
11620;SDS011;5866;49.094;11.900;2022-09-03T03:58:00;56.15;;;53.15;;
11620;SDS011;5866;49.094;11.900;2022-09-03T04:00:28;53.45;;;50.65;;
11620;SDS011;5866;49.094;11.900;2022-09-03T04:02:55;52.17;;;49.28;;
11620;SDS011;5866;49.094;11.900;2022-09-03T04:05:23;48.65;;;45.95;;
11620;SDS011;5866;49.094;11.900;2022-09-03T04:07:52;46.58;;;44.08;;
11620;SDS011;5866;49.094;11.900;2022-09-03T04:10:19;49.28;;;46.55;;
11620;SDS011;5866;49.094;11.900;2022-09-03T04:12:48;53.67;;;50.70;;
11620;SDS011;5866;49.094;11.900;2022-09-03T04:15:15;52.90;;;50.05;;
11620;SDS011;5866;49.094;11.900;2022-09-03T04:17:43;56.22;;;53.10;;
11620;SDS011;5866;49.094;11.900;2022-09-03T04:20:10;51.45;;;48.60;;
11620;SDS011;5866;49.094;11.900;2022-09-03T04:22:38;49.95;;;47.33;;
11620;SDS011;5866;49.094;11.900;2022-09-03T04:25:06;51.25;;;47.88;;
11620;SDS011;5866;49.094;11.900;2022-09-03T04:27:34;52.05;;;49.20;;
11620;SDS011;5866;49.094;11.900;2022-09-03T04:30:03;51.90;;;49.20;;
11620;SDS011;5866;49.094;11.900;2022-09-03T04:32:31;51.70;;;48.90;;
11620;SDS011;5866;49.094;11.900;2022-09-03T04:35:17;51.55;;;48.83;;
11620;SDS011;5866;49.094;11.900;2022-09-03T04:37:46;53.17;;;50.30;;
11620;SDS011;5866;49.094;11.900;2022-09-03T04:40:13;55.33;;;52.15;;
11620;SDS011;5866;49.094;11.900;2022-09-03T04:42:41;51.47;;;48.72;;
11620;SDS011;5866;49.094;11.900;2022-09-03T04:45:10;54.13;;;51.33;;
11620;SDS011;5866;49.094;11.900;2022-09-03T04:47:43;52.83;;;49.92;;
11620;SDS011;5866;49.094;11.900;2022-09-03T04:50:12;55.60;;;52.70;;
11620;SDS011;5866;49.094;11.900;2022-09-03T04:52:40;57.33;;;54.38;;
11620;SDS011;5866;49.094;11.900;2022-09-03T04:55:07;51.40;;;48.70;;
11620;SDS011;5866;49.094;11.900;2022-09-03T04:57:37;53.75;;;50.70;;
11620;SDS011;5866;49.094;11.900;2022-09-03T05:00:04;47.25;;;44.65;;
11620;SDS011;5866;49.094;11.900;2022-09-03T05:02:37;43.47;;;41.17;;
11620;SDS011;5866;49.094;11.900;2022-09-03T05:05:05;41.55;;;39.25;;
11620;SDS011;5866;49.094;11.900;2022-09-03T05:07:33;43.28;;;40.78;;
11620;SDS011;5866;49.094;11.900;2022-09-03T05:10:04;44.00;;;41.60;;
11620;SDS011;5866;49.094;11.900;2022-09-03T05:12:33;43.60;;;41.08;;
11620;SDS011;5866;49.094;11.900;2022-09-03T05:15:01;43.88;;;41.35;;
11620;SDS011;5866;49.094;11.900;2022-09-03T05:17:30;47.15;;;44.47;;
11620;SDS011;5866;49.094;11.900;2022-09-03T05:20:04;49.50;;;46.70;;
11620;SDS011;5866;49.094;11.900;2022-09-03T05:22:33;47.67;;;44.83;;
11620;SDS011;5866;49.094;11.900;2022-09-03T05:25:01;34.70;;;32.67;;
11620;SDS011;5866;49.094;11.900;2022-09-03T05:27:29;29.30;;;27.70;;
11620;SDS011;5866;49.094;11.900;2022-09-03T05:29:57;27.27;;;25.88;;
11620;SDS011;5866;49.094;11.900;2022-09-03T05:32:25;25.50;;;24.10;;
11620;SDS011;5866;49.094;11.900;2022-09-03T05:34:53;29.73;;;26.77;;
11620;SDS011;5866;49.094;11.900;2022-09-03T05:37:23;29.55;;;26.77;;
11620;SDS011;5866;49.094;11.900;2022-09-03T05:39:51;23.98;;;22.05;;
11620;SDS011;5866;49.094;11.900;2022-09-03T05:42:19;19.50;;;18.30;;
11620;SDS011;5866;49.094;11.900;2022-09-03T05:44:47;19.52;;;18.42;;
11620;SDS011;5866;49.094;11.900;2022-09-03T05:47:15;19.90;;;18.58;;
11620;SDS011;5866;49.094;11.900;2022-09-03T05:49:42;17.83;;;16.83;;
11620;SDS011;5866;49.094;11.900;2022-09-03T05:52:10;20.95;;;19.75;;
11620;SDS011;5866;49.094;11.900;2022-09-03T05:54:38;18.67;;;17.63;;
11620;SDS011;5866;49.094;11.900;2022-09-03T05:57:06;21.25;;;20.05;;
11620;SDS011;5866;49.094;11.900;2022-09-03T05:59:33;17.83;;;16.58;;
11620;SDS011;5866;49.094;11.900;2022-09-03T06:02:01;16.23;;;15.30;;
11620;SDS011;5866;49.094;11.900;2022-09-03T06:04:29;17.27;;;16.08;;
11620;SDS011;5866;49.094;11.900;2022-09-03T06:06:58;17.05;;;15.95;;
11620;SDS011;5866;49.094;11.900;2022-09-03T06:09:25;19.52;;;18.27;;
11620;SDS011;5866;49.094;11.900;2022-09-03T06:11:54;32.58;;;30.63;;
11620;SDS011;5866;49.094;11.900;2022-09-03T06:14:24;16.55;;;15.68;;
11620;SDS011;5866;49.094;11.900;2022-09-03T06:16:52;24.20;;;22.88;;
11620;SDS011;5866;49.094;11.900;2022-09-03T06:19:21;9.40;;;8.88;;
11620;SDS011;5866;49.094;11.900;2022-09-03T06:21:48;31.10;;;29.30;;
11620;SDS011;5866;49.094;11.900;2022-09-03T06:24:17;10.10;;;9.45;;
11620;SDS011;5866;49.094;11.900;2022-09-03T06:26:51;17.33;;;16.38;;
11620;SDS011;5866;49.094;11.900;2022-09-03T06:29:20;18.65;;;16.40;;
11620;SDS011;5866;49.094;11.900;2022-09-03T06:31:48;39.50;;;37.38;;
11620;SDS011;5866;49.094;11.900;2022-09-03T06:34:16;10.05;;;9.45;;
11620;SDS011;5866;49.094;11.900;2022-09-03T06:36:44;8.32;;;7.85;;
11620;SDS011;5866;49.094;11.900;2022-09-03T06:39:12;20.85;;;19.73;;
11620;SDS011;5866;49.094;11.900;2022-09-03T06:41:39;9.60;;;9.05;;
11620;SDS011;5866;49.094;11.900;2022-09-03T06:44:07;7.07;;;6.63;;
11620;SDS011;5866;49.094;11.900;2022-09-03T06:46:39;8.80;;;6.97;;
11620;SDS011;5866;49.094;11.900;2022-09-03T06:49:08;5.68;;;5.28;;
11620;SDS011;5866;49.094;11.900;2022-09-03T06:51:36;7.47;;;7.05;;
11620;SDS011;5866;49.094;11.900;2022-09-03T06:54:05;6.38;;;5.82;;
11620;SDS011;5866;49.094;11.900;2022-09-03T06:56:34;6.40;;;6.00;;
11620;SDS011;5866;49.094;11.900;2022-09-03T06:59:06;6.28;;;5.82;;
11620;SDS011;5866;49.094;11.900;2022-09-03T07:01:35;7.57;;;7.10;;
11620;SDS011;5866;49.094;11.900;2022-09-03T07:04:11;7.03;;;6.55;;
11620;SDS011;5866;49.094;11.900;2022-09-03T07:06:41;5.65;;;5.25;;
11620;SDS011;5866;49.094;11.900;2022-09-03T07:09:09;7.78;;;7.20;;
11620;SDS011;5866;49.094;11.900;2022-09-03T07:11:38;6.72;;;4.78;;
11620;SDS011;5866;49.094;11.900;2022-09-03T07:14:12;6.53;;;5.15;;
11620;SDS011;5866;49.094;11.900;2022-09-03T07:16:41;13.52;;;12.80;;
11620;SDS011;5866;49.094;11.900;2022-09-03T07:19:08;17.92;;;16.92;;
11620;SDS011;5866;49.094;11.900;2022-09-03T07:21:38;7.55;;;7.05;;
11620;SDS011;5866;49.094;11.900;2022-09-03T07:24:14;10.60;;;9.77;;
11620;SDS011;5866;49.094;11.900;2022-09-03T07:26:43;13.52;;;12.75;;
11620;SDS011;5866;49.094;11.900;2022-09-03T07:29:11;11.75;;;11.10;;
11620;SDS011;5866;49.094;11.900;2022-09-03T07:31:41;16.02;;;15.18;;
11620;SDS011;5866;49.094;11.900;2022-09-03T07:34:11;23.85;;;22.38;;
11620;SDS011;5866;49.094;11.900;2022-09-03T07:36:43;11.00;;;10.35;;
11620;SDS011;5866;49.094;11.900;2022-09-03T07:39:14;11.02;;;10.38;;
11620;SDS011;5866;49.094;11.900;2022-09-03T07:41:43;12.40;;;11.73;;
11620;SDS011;5866;49.094;11.900;2022-09-03T07:44:12;10.90;;;10.27;;
11620;SDS011;5866;49.094;11.900;2022-09-03T07:46:41;13.77;;;13.07;;
11620;SDS011;5866;49.094;11.900;2022-09-03T07:49:12;17.33;;;16.35;;
11620;SDS011;5866;49.094;11.900;2022-09-03T07:51:40;21.55;;;20.40;;
11620;SDS011;5866;49.094;11.900;2022-09-03T07:54:08;22.48;;;21.30;;
11620;SDS011;5866;49.094;11.900;2022-09-03T07:56:37;25.27;;;23.80;;
11620;SDS011;5866;49.094;11.900;2022-09-03T07:59:06;28.88;;;27.38;;
11620;SDS011;5866;49.094;11.900;2022-09-03T08:01:34;30.35;;;28.52;;
11620;SDS011;5866;49.094;11.900;2022-09-03T08:04:07;23.58;;;22.35;;
11620;SDS011;5866;49.094;11.900;2022-09-03T08:06:37;25.20;;;23.80;;
11620;SDS011;5866;49.094;11.900;2022-09-03T08:09:07;29.23;;;27.65;;
11620;SDS011;5866;49.094;11.900;2022-09-03T08:11:37;20.50;;;19.40;;
11620;SDS011;5866;49.094;11.900;2022-09-03T08:14:06;18.92;;;17.65;;
11620;SDS011;5866;49.094;11.900;2022-09-03T08:16:36;20.95;;;19.65;;
11620;SDS011;5866;49.094;11.900;2022-09-03T08:19:05;17.70;;;16.75;;
11620;SDS011;5866;49.094;11.900;2022-09-03T08:21:33;14.43;;;13.52;;
11620;SDS011;5866;49.094;11.900;2022-09-03T08:24:02;17.52;;;16.60;;
11620;SDS011;5866;49.094;11.900;2022-09-03T08:26:31;18.88;;;17.73;;
11620;SDS011;5866;49.094;11.900;2022-09-03T08:29:00;16.98;;;16.08;;
11620;SDS011;5866;49.094;11.900;2022-09-03T08:31:29;16.27;;;15.35;;
11620;SDS011;5866;49.094;11.900;2022-09-03T08:33:59;16.55;;;15.65;;
11620;SDS011;5866;49.094;11.900;2022-09-03T08:36:35;18.08;;;17.08;;
11620;SDS011;5866;49.094;11.900;2022-09-03T08:39:05;22.00;;;20.73;;
11620;SDS011;5866;49.094;11.900;2022-09-03T08:41:39;18.52;;;17.52;;
11620;SDS011;5866;49.094;11.900;2022-09-03T08:44:28;22.00;;;20.83;;
11620;SDS011;5866;49.094;11.900;2022-09-03T08:47:01;17.25;;;16.33;;
11620;SDS011;5866;49.094;11.900;2022-09-03T08:49:37;24.52;;;23.20;;
11620;SDS011;5866;49.094;11.900;2022-09-03T08:52:15;21.88;;;20.73;;
11620;SDS011;5866;49.094;11.900;2022-09-03T08:54:53;22.85;;;21.55;;
11620;SDS011;5866;49.094;11.900;2022-09-03T08:57:26;23.75;;;22.42;;
11620;SDS011;5866;49.094;11.900;2022-09-03T08:59:58;18.83;;;17.77;;
11620;SDS011;5866;49.094;11.900;2022-09-03T09:02:30;21.73;;;20.33;;
11620;SDS011;5866;49.094;11.900;2022-09-03T09:05:08;27.35;;;25.92;;
11620;SDS011;5866;49.094;11.900;2022-09-03T09:07:40;26.17;;;24.77;;
11620;SDS011;5866;49.094;11.900;2022-09-03T09:10:15;23.17;;;21.45;;
11620;SDS011;5866;49.094;11.900;2022-09-03T09:12:50;21.00;;;19.90;;
11620;SDS011;5866;49.094;11.900;2022-09-03T09:15:33;24.63;;;23.25;;
11620;SDS011;5866;49.094;11.900;2022-09-03T09:18:09;20.73;;;19.38;;
11620;SDS011;5866;49.094;11.900;2022-09-03T09:20:47;22.75;;;21.48;;
11620;SDS011;5866;49.094;11.900;2022-09-03T09:23:18;26.05;;;24.65;;
11620;SDS011;5866;49.094;11.900;2022-09-03T09:25:52;29.48;;;27.70;;
11620;SDS011;5866;49.094;11.900;2022-09-03T09:28:24;24.60;;;23.25;;
11620;SDS011;5866;49.094;11.900;2022-09-03T09:30:56;28.45;;;26.75;;
11620;SDS011;5866;49.094;11.900;2022-09-03T09:33:24;24.40;;;23.08;;
11620;SDS011;5866;49.094;11.900;2022-09-03T09:35:51;24.90;;;23.50;;
11620;SDS011;5866;49.094;11.900;2022-09-03T09:38:26;24.70;;;23.30;;
11620;SDS011;5866;49.094;11.900;2022-09-03T09:41:06;19.23;;;18.23;;
11620;SDS011;5866;49.094;11.900;2022-09-03T09:43:35;29.55;;;27.95;;
11620;SDS011;5866;49.094;11.900;2022-09-03T09:46:05;23.42;;;22.13;;
11620;SDS011;5866;49.094;11.900;2022-09-03T09:48:37;18.80;;;17.70;;
11620;SDS011;5866;49.094;11.900;2022-09-03T09:51:12;28.70;;;27.17;;
11620;SDS011;5866;49.094;11.900;2022-09-03T09:53:44;25.75;;;24.33;;
11620;SDS011;5866;49.094;11.900;2022-09-03T09:56:20;22.98;;;21.63;;
11620;SDS011;5866;49.094;11.900;2022-09-03T09:58:49;17.73;;;16.55;;
11620;SDS011;5866;49.094;11.900;2022-09-03T10:01:19;20.13;;;18.70;;
11620;SDS011;5866;49.094;11.900;2022-09-03T10:03:51;16.52;;;15.63;;
11620;SDS011;5866;49.094;11.900;2022-09-03T10:06:22;21.17;;;20.00;;
11620;SDS011;5866;49.094;11.900;2022-09-03T10:09:09;21.67;;;20.48;;
11620;SDS011;5866;49.094;11.900;2022-09-03T10:11:41;20.25;;;19.15;;
11620;SDS011;5866;49.094;11.900;2022-09-03T10:14:18;23.92;;;22.52;;
11620;SDS011;5866;49.094;11.900;2022-09-03T10:16:53;22.75;;;21.55;;
11620;SDS011;5866;49.094;11.900;2022-09-03T10:19:28;17.92;;;16.92;;
11620;SDS011;5866;49.094;11.900;2022-09-03T10:22:03;21.10;;;19.92;;
11620;SDS011;5866;49.094;11.900;2022-09-03T10:24:40;17.63;;;16.52;;
11620;SDS011;5866;49.094;11.900;2022-09-03T10:27:18;17.38;;;16.38;;
11620;SDS011;5866;49.094;11.900;2022-09-03T10:29:47;15.70;;;14.85;;
11620;SDS011;5866;49.094;11.900;2022-09-03T10:32:24;22.60;;;21.35;;
11620;SDS011;5866;49.094;11.900;2022-09-03T10:35:08;18.70;;;17.52;;
11620;SDS011;5866;49.094;11.900;2022-09-03T10:37:46;27.17;;;25.65;;
11620;SDS011;5866;49.094;11.900;2022-09-03T10:40:21;23.25;;;21.90;;
11620;SDS011;5866;49.094;11.900;2022-09-03T10:43:05;32.47;;;30.75;;
11620;SDS011;5866;49.094;11.900;2022-09-03T10:45:45;22.98;;;21.58;;
11620;SDS011;5866;49.094;11.900;2022-09-03T10:48:24;21.65;;;20.20;;
11620;SDS011;5866;49.094;11.900;2022-09-03T10:51:00;22.27;;;21.10;;
11620;SDS011;5866;49.094;11.900;2022-09-03T10:53:36;21.40;;;20.13;;
11620;SDS011;5866;49.094;11.900;2022-09-03T10:56:16;20.90;;;19.67;;
11620;SDS011;5866;49.094;11.900;2022-09-03T10:58:52;23.08;;;21.88;;
11620;SDS011;5866;49.094;11.900;2022-09-03T11:01:31;20.20;;;19.10;;
11620;SDS011;5866;49.094;11.900;2022-09-03T11:04:16;30.98;;;29.33;;
11620;SDS011;5866;49.094;11.900;2022-09-03T11:06:53;24.17;;;22.88;;
11620;SDS011;5866;49.094;11.900;2022-09-03T11:09:25;20.58;;;19.38;;
11620;SDS011;5866;49.094;11.900;2022-09-03T11:11:58;29.58;;;27.98;;
11620;SDS011;5866;49.094;11.900;2022-09-03T11:14:33;29.88;;;28.13;;
11620;SDS011;5866;49.094;11.900;2022-09-03T11:17:05;22.67;;;21.40;;
11620;SDS011;5866;49.094;11.900;2022-09-03T11:19:38;24.67;;;23.35;;
11620;SDS011;5866;49.094;11.900;2022-09-03T11:22:13;16.98;;;15.88;;
11620;SDS011;5866;49.094;11.900;2022-09-03T11:24:48;26.80;;;25.40;;
11620;SDS011;5866;49.094;11.900;2022-09-03T11:27:23;25.95;;;24.60;;
11620;SDS011;5866;49.094;11.900;2022-09-03T11:29:59;19.90;;;18.83;;
11620;SDS011;5866;49.094;11.900;2022-09-03T11:32:33;24.02;;;22.60;;
11620;SDS011;5866;49.094;11.900;2022-09-03T11:35:12;20.80;;;19.55;;
11620;SDS011;5866;49.094;11.900;2022-09-03T11:37:46;15.63;;;14.68;;
11620;SDS011;5866;49.094;11.900;2022-09-03T11:40:20;18.15;;;17.20;;
11620;SDS011;5866;49.094;11.900;2022-09-03T11:43:04;26.48;;;25.02;;
11620;SDS011;5866;49.094;11.900;2022-09-03T11:45:35;21.48;;;20.38;;
11620;SDS011;5866;49.094;11.900;2022-09-03T11:48:17;24.73;;;23.05;;
11620;SDS011;5866;49.094;11.900;2022-09-03T11:50:58;17.17;;;16.08;;
11620;SDS011;5866;49.094;11.900;2022-09-03T11:53:31;14.57;;;13.70;;
11620;SDS011;5866;49.094;11.900;2022-09-03T11:56:08;13.32;;;12.50;;
11620;SDS011;5866;49.094;11.900;2022-09-03T11:58:45;19.10;;;18.10;;
11620;SDS011;5866;49.094;11.900;2022-09-03T12:01:15;22.27;;;21.13;;
11620;SDS011;5866;49.094;11.900;2022-09-03T12:03:44;17.05;;;16.15;;
11620;SDS011;5866;49.094;11.900;2022-09-03T12:06:26;20.48;;;19.30;;
11620;SDS011;5866;49.094;11.900;2022-09-03T12:09:17;23.35;;;21.70;;
11620;SDS011;5866;49.094;11.900;2022-09-03T12:12:09;23.73;;;22.50;;
11620;SDS011;5866;49.094;11.900;2022-09-03T12:14:50;28.48;;;26.83;;
11620;SDS011;5866;49.094;11.900;2022-09-03T12:17:28;30.65;;;28.92;;
11620;SDS011;5866;49.094;11.900;2022-09-03T12:20:01;28.52;;;27.02;;
11620;SDS011;5866;49.094;11.900;2022-09-03T12:22:34;23.90;;;22.65;;
11620;SDS011;5866;49.094;11.900;2022-09-03T12:25:07;21.63;;;20.52;;
11620;SDS011;5866;49.094;11.900;2022-09-03T12:27:37;30.85;;;28.98;;
11620;SDS011;5866;49.094;11.900;2022-09-03T12:30:13;21.70;;;20.60;;
11620;SDS011;5866;49.094;11.900;2022-09-03T12:32:44;21.85;;;20.73;;
11620;SDS011;5866;49.094;11.900;2022-09-03T12:35:13;32.13;;;30.35;;
11620;SDS011;5866;49.094;11.900;2022-09-03T12:38:02;18.48;;;17.40;;
11620;SDS011;5866;49.094;11.900;2022-09-03T12:40:34;21.88;;;20.60;;
11620;SDS011;5866;49.094;11.900;2022-09-03T12:43:25;21.92;;;20.73;;
11620;SDS011;5866;49.094;11.900;2022-09-03T12:46:14;20.65;;;19.50;;
11620;SDS011;5866;49.094;11.900;2022-09-03T12:48:50;14.48;;;13.52;;
11620;SDS011;5866;49.094;11.900;2022-09-03T12:51:40;17.77;;;16.77;;
11620;SDS011;5866;49.094;11.900;2022-09-03T12:54:20;16.30;;;14.95;;
11620;SDS011;5866;49.094;11.900;2022-09-03T12:56:49;6.95;;;6.55;;
11620;SDS011;5866;49.094;11.900;2022-09-03T12:59:22;7.10;;;6.63;;
11620;SDS011;5866;49.094;11.900;2022-09-03T13:01:53;17.40;;;16.35;;
11620;SDS011;5866;49.094;11.900;2022-09-03T13:04:26;12.45;;;11.77;;
11620;SDS011;5866;49.094;11.900;2022-09-03T13:06:59;6.57;;;6.07;;
11620;SDS011;5866;49.094;11.900;2022-09-03T13:09:30;12.45;;;11.75;;
11620;SDS011;5866;49.094;11.900;2022-09-03T13:12:02;13.48;;;12.63;;
11620;SDS011;5866;49.094;11.900;2022-09-03T13:14:40;8.02;;;7.53;;
11620;SDS011;5866;49.094;11.900;2022-09-03T13:17:13;8.80;;;8.18;;
11620;SDS011;5866;49.094;11.900;2022-09-03T13:20:14;9.07;;;8.48;;
11620;SDS011;5866;49.094;11.900;2022-09-03T13:22:58;8.02;;;7.53;;
11620;SDS011;5866;49.094;11.900;2022-09-03T13:25:37;9.90;;;9.32;;
11620;SDS011;5866;49.094;11.900;2022-09-03T13:28:16;10.25;;;9.55;;
11620;SDS011;5866;49.094;11.900;2022-09-03T13:30:54;14.20;;;13.30;;
11620;SDS011;5866;49.094;11.900;2022-09-03T13:33:27;22.50;;;21.10;;
11620;SDS011;5866;49.094;11.900;2022-09-03T13:36:08;24.25;;;22.75;;
11620;SDS011;5866;49.094;11.900;2022-09-03T13:38:42;25.38;;;23.83;;
11620;SDS011;5866;49.094;11.900;2022-09-03T13:41:16;25.90;;;24.30;;
11620;SDS011;5866;49.094;11.900;2022-09-03T13:44:02;27.17;;;25.70;;
11620;SDS011;5866;49.094;11.900;2022-09-03T13:46:38;25.40;;;23.80;;
11620;SDS011;5866;49.094;11.900;2022-09-03T13:49:12;21.50;;;20.30;;
11620;SDS011;5866;49.094;11.900;2022-09-03T13:52:07;25.35;;;23.95;;
11620;SDS011;5866;49.094;11.900;2022-09-03T13:54:49;27.63;;;26.13;;
11620;SDS011;5866;49.094;11.900;2022-09-03T13:57:23;27.92;;;26.45;;
11620;SDS011;5866;49.094;11.900;2022-09-03T14:00:00;22.65;;;21.25;;
11620;SDS011;5866;49.094;11.900;2022-09-03T14:02:37;47.03;;;44.60;;
11620;SDS011;5866;49.094;11.900;2022-09-03T14:05:15;35.55;;;33.67;;
11620;SDS011;5866;49.094;11.900;2022-09-03T14:08:03;37.05;;;35.08;;
11620;SDS011;5866;49.094;11.900;2022-09-03T14:10:42;29.02;;;27.50;;
11620;SDS011;5866;49.094;11.900;2022-09-03T14:13:27;28.83;;;27.10;;
11620;SDS011;5866;49.094;11.900;2022-09-03T14:16:03;28.38;;;26.65;;
11620;SDS011;5866;49.094;11.900;2022-09-03T14:18:37;29.45;;;27.92;;
11620;SDS011;5866;49.094;11.900;2022-09-03T14:21:13;33.78;;;31.70;;
11620;SDS011;5866;49.094;11.900;2022-09-03T14:23:46;26.42;;;24.95;;
11620;SDS011;5866;49.094;11.900;2022-09-03T14:26:18;23.60;;;22.30;;
11620;SDS011;5866;49.094;11.900;2022-09-03T14:29:05;41.03;;;38.88;;
11620;SDS011;5866;49.094;11.900;2022-09-03T14:31:46;44.08;;;41.63;;
11620;SDS011;5866;49.094;11.900;2022-09-03T14:34:26;46.47;;;44.00;;
11620;SDS011;5866;49.094;11.900;2022-09-03T14:37:05;64.95;;;61.55;;
11620;SDS011;5866;49.094;11.900;2022-09-03T14:39:45;47.88;;;45.22;;
11620;SDS011;5866;49.094;11.900;2022-09-03T14:42:22;54.63;;;51.60;;
11620;SDS011;5866;49.094;11.900;2022-09-03T14:45:14;27.98;;;26.40;;
11620;SDS011;5866;49.094;11.900;2022-09-03T14:47:53;44.92;;;42.53;;
11620;SDS011;5866;49.094;11.900;2022-09-03T14:50:47;65.47;;;62.08;;
11620;SDS011;5866;49.094;11.900;2022-09-03T14:53:38;28.27;;;26.67;;
11620;SDS011;5866;49.094;11.900;2022-09-03T14:56:27;33.00;;;30.95;;
11620;SDS011;5866;49.094;11.900;2022-09-03T14:59:11;44.50;;;42.13;;
11620;SDS011;5866;49.094;11.900;2022-09-03T15:02:15;64.55;;;61.15;;
11620;SDS011;5866;49.094;11.900;2022-09-03T15:05:01;55.88;;;52.85;;